createdAt,value
2018-12-13T00:00:22.731Z,2.10
2018-12-13T00:02:50.493Z,2.10
2018-12-13T00:05:18.259Z,2.10
2018-12-13T00:07:45.974Z,2.10
2018-12-13T00:10:13.754Z,2.10
2018-12-13T00:12:41.690Z,2.10
2018-12-13T00:15:09.402Z,2.10
2018-12-13T00:17:37.128Z,2.10
2018-12-13T00:20:05.364Z,2.10
2018-12-13T00:22:33.167Z,2.10
2018-12-13T00:25:00.842Z,2.10
2018-12-13T00:27:28.602Z,2.10
2018-12-13T00:29:59.824Z,2.10
2018-12-13T00:32:27.535Z,2.10
2018-12-13T00:34:55.276Z,2.10
2018-12-13T00:37:23.010Z,2.10
2018-12-13T00:39:50.758Z,2.10
2018-12-13T00:42:18.475Z,2.10
2018-12-13T00:44:46.176Z,2.10
2018-12-13T00:47:13.893Z,2.10
2018-12-13T00:49:41.603Z,2.10
2018-12-13T00:52:09.438Z,2.10
2018-12-13T00:54:37.118Z,2.10
2018-12-13T00:57:04.875Z,2.20
2018-12-13T00:59:32.533Z,2.10
2018-12-13T01:02:00.237Z,2.20
2018-12-13T01:04:28.409Z,2.20
2018-12-13T01:06:56.201Z,2.20
2018-12-13T01:09:23.915Z,2.10
2018-12-13T01:11:51.652Z,2.10
2018-12-13T01:14:19.334Z,2.10
2018-12-13T01:16:47.057Z,2.10
2018-12-13T01:19:14.822Z,2.10
2018-12-13T01:21:42.566Z,2.10
2018-12-13T01:24:10.324Z,2.10
2018-12-13T01:26:38.050Z,2.10
2018-12-13T01:29:05.743Z,2.10
2018-12-13T01:31:33.444Z,2.10
2018-12-13T01:34:01.194Z,2.10
2018-12-13T01:36:28.930Z,2.10
2018-12-13T01:38:56.747Z,2.10
2018-12-13T01:41:24.451Z,2.10
2018-12-13T01:43:52.180Z,2.10
2018-12-13T01:46:19.909Z,2.10
2018-12-13T01:48:47.640Z,2.10
2018-12-13T01:51:15.342Z,2.10
2018-12-13T01:53:43.180Z,2.10
2018-12-13T01:56:10.920Z,2.10
2018-12-13T01:58:38.656Z,2.10
2018-12-13T02:01:06.342Z,2.10
2018-12-13T02:03:34.080Z,2.00
2018-12-13T02:06:01.805Z,2.00
2018-12-13T02:08:29.496Z,2.00
2018-12-13T02:10:57.342Z,2.00
2018-12-13T02:13:25.112Z,2.00
2018-12-13T02:15:52.834Z,2.00
2018-12-13T02:18:20.582Z,2.10
2018-12-13T02:20:48.270Z,2.00
2018-12-13T02:23:15.965Z,2.00
2018-12-13T02:25:43.722Z,2.00
2018-12-13T02:28:11.576Z,2.00
2018-12-13T02:30:39.266Z,2.00
2018-12-13T02:33:07.006Z,2.00
2018-12-13T02:35:34.765Z,2.00
2018-12-13T02:38:02.595Z,2.00
2018-12-13T02:40:30.357Z,2.00
2018-12-13T02:42:58.047Z,2.00
2018-12-13T02:45:25.775Z,2.00
2018-12-13T02:47:53.475Z,2.00
2018-12-13T02:50:21.187Z,2.00
2018-12-13T02:52:48.979Z,2.00
2018-12-13T02:55:16.899Z,1.90
2018-12-13T02:57:44.613Z,1.90
2018-12-13T03:00:12.776Z,1.90
2018-12-13T03:02:40.558Z,1.90
2018-12-13T03:05:08.703Z,1.90
2018-12-13T03:07:36.465Z,1.90
2018-12-13T03:10:04.874Z,1.90
2018-12-13T03:12:32.617Z,1.90
2018-12-13T03:15:00.378Z,1.90
2018-12-13T03:17:28.136Z,1.90
2018-12-13T03:19:55.780Z,1.90
2018-12-13T03:22:23.454Z,1.90
2018-12-13T03:24:51.172Z,1.90
2018-12-13T03:27:18.915Z,1.90
2018-12-13T03:29:46.620Z,1.90
2018-12-13T03:32:14.383Z,1.90
2018-12-13T03:34:42.071Z,1.90
2018-12-13T03:37:09.754Z,1.90
2018-12-13T03:39:37.525Z,1.90
2018-12-13T03:42:05.330Z,1.90
2018-12-13T03:44:33.087Z,1.90
2018-12-13T03:47:00.981Z,1.90
2018-12-13T03:49:28.713Z,1.90
2018-12-13T03:51:56.440Z,1.90
2018-12-13T03:54:24.194Z,1.90
2018-12-13T03:56:51.956Z,1.80
2018-12-13T03:59:19.697Z,1.90
2018-12-13T04:01:47.443Z,1.80
2018-12-13T04:04:15.169Z,1.80
2018-12-13T04:06:42.859Z,1.80
2018-12-13T04:09:10.588Z,1.80
2018-12-13T04:11:38.376Z,1.80
2018-12-13T04:14:06.035Z,1.80
2018-12-13T04:16:33.843Z,1.80
2018-12-13T04:19:01.554Z,1.80
2018-12-13T04:21:29.290Z,1.80
2018-12-13T04:23:57.062Z,1.80
2018-12-13T04:26:24.789Z,1.80
2018-12-13T04:28:52.569Z,1.80
2018-12-13T04:31:20.289Z,1.80
2018-12-13T04:33:47.955Z,1.80
2018-12-13T04:36:15.669Z,1.80
2018-12-13T04:38:43.403Z,1.80
2018-12-13T04:41:11.093Z,1.80
2018-12-13T04:43:38.785Z,1.80
2018-12-13T04:46:06.572Z,1.80
2018-12-13T04:48:34.307Z,1.80
2018-12-13T04:51:02.003Z,1.80
2018-12-13T04:53:29.784Z,1.80
2018-12-13T04:55:57.543Z,1.70
2018-12-13T04:58:25.373Z,1.80
2018-12-13T05:00:53.199Z,1.70
2018-12-13T05:03:20.903Z,1.70
2018-12-13T05:05:48.581Z,1.70
2018-12-13T05:08:16.346Z,1.70
2018-12-13T05:10:52.374Z,1.70
2018-12-13T05:13:20.123Z,1.70
2018-12-13T05:15:47.798Z,1.70
2018-12-13T05:18:15.623Z,1.70
2018-12-13T05:20:43.371Z,1.70
2018-12-13T05:23:11.061Z,1.60
2018-12-13T05:25:38.725Z,1.60
2018-12-13T05:28:06.477Z,1.60
2018-12-13T05:30:34.488Z,1.60
2018-12-13T05:33:02.235Z,1.60
2018-12-13T05:35:29.951Z,1.60
2018-12-13T05:37:57.619Z,1.60
2018-12-13T05:40:25.301Z,1.70
2018-12-13T05:42:53.019Z,1.70
2018-12-13T05:45:20.739Z,1.70
2018-12-13T05:47:48.419Z,1.60
2018-12-13T05:50:16.149Z,1.60
2018-12-13T05:52:43.856Z,1.60
2018-12-13T05:55:11.534Z,1.60
2018-12-13T05:57:39.230Z,1.60
2018-12-13T06:00:08.521Z,1.70
2018-12-13T06:02:36.197Z,1.70
2018-12-13T06:05:05.214Z,1.60
2018-12-13T06:07:32.935Z,1.60
2018-12-13T06:10:00.815Z,1.70
2018-12-13T06:12:28.545Z,1.70
2018-12-13T06:14:56.267Z,1.70
2018-12-13T06:17:23.921Z,1.70
2018-12-13T06:19:51.621Z,1.70
2018-12-13T06:22:19.369Z,1.60
2018-12-13T06:24:47.065Z,1.70
2018-12-13T06:27:14.808Z,1.70
2018-12-13T06:29:59.077Z,1.70
2018-12-13T06:32:27.564Z,1.70
2018-12-13T06:34:55.262Z,1.60
2018-12-13T06:37:22.940Z,1.60
2018-12-13T06:39:50.680Z,1.60
2018-12-13T06:42:18.353Z,1.60
2018-12-13T06:44:46.008Z,1.70
2018-12-13T06:47:13.867Z,1.60
2018-12-13T06:49:41.545Z,1.70
2018-12-13T06:52:09.224Z,1.70
2018-12-13T06:54:36.970Z,1.60
2018-12-13T06:57:04.680Z,1.60
2018-12-13T06:59:32.342Z,1.60
2018-12-13T07:02:00.052Z,1.60
2018-12-13T07:04:27.760Z,1.60
2018-12-13T07:06:55.521Z,1.60
2018-12-13T07:09:23.276Z,1.60
2018-12-13T07:11:50.948Z,1.60
2018-12-13T07:14:18.700Z,1.60
2018-12-13T07:16:46.428Z,1.60
2018-12-13T07:19:14.182Z,1.60
2018-12-13T07:21:41.887Z,1.60
2018-12-13T07:24:09.692Z,1.60
2018-12-13T07:26:37.387Z,1.60
2018-12-13T07:29:05.094Z,1.60
2018-12-13T07:31:32.832Z,1.60
2018-12-13T07:34:00.466Z,1.70
2018-12-13T07:36:28.112Z,1.60
2018-12-13T07:38:55.895Z,1.60
2018-12-13T07:41:23.560Z,1.60
2018-12-13T07:43:51.246Z,1.70
2018-12-13T07:46:18.891Z,1.60
2018-12-13T07:48:46.550Z,1.60
2018-12-13T07:51:14.228Z,1.60
2018-12-13T07:53:41.918Z,1.60
2018-12-13T07:56:10.372Z,1.60
2018-12-13T07:58:38.044Z,1.60
2018-12-13T08:01:05.811Z,1.60
2018-12-13T08:03:33.644Z,1.60
2018-12-13T08:06:01.404Z,1.60
2018-12-13T08:08:29.128Z,1.70
2018-12-13T08:10:56.830Z,1.60
2018-12-13T08:13:24.515Z,1.60
2018-12-13T08:15:52.188Z,1.60
2018-12-13T08:18:19.819Z,1.70
2018-12-13T08:20:47.485Z,1.60
2018-12-13T08:23:15.192Z,1.60
2018-12-13T08:25:42.838Z,1.60
2018-12-13T08:28:10.524Z,1.60
2018-12-13T08:30:38.179Z,1.60
2018-12-13T08:33:05.852Z,1.60
2018-12-13T08:35:37.562Z,1.40
2018-12-13T08:38:05.260Z,1.60
2018-12-13T08:40:32.915Z,1.60
2018-12-13T08:43:00.560Z,1.60
2018-12-13T08:45:28.241Z,1.60
2018-12-13T08:47:55.936Z,1.60
2018-12-13T08:50:23.619Z,1.60
2018-12-13T08:52:51.336Z,1.60
2018-12-13T08:55:18.979Z,1.60
2018-12-13T08:57:46.608Z,1.70
2018-12-13T09:00:14.284Z,1.70
2018-12-13T09:02:41.968Z,1.70
2018-12-13T09:05:09.691Z,1.70
2018-12-13T09:07:37.373Z,1.70
2018-12-13T09:10:06.093Z,1.70
2018-12-13T09:12:33.768Z,1.70
2018-12-13T09:15:01.462Z,1.70
2018-12-13T09:17:29.168Z,1.80
2018-12-13T09:19:56.853Z,1.80
2018-12-13T09:22:24.505Z,1.80
2018-12-13T09:24:52.133Z,1.80
2018-12-13T09:27:19.809Z,1.80
2018-12-13T09:29:47.531Z,1.70
2018-12-13T09:32:15.243Z,1.80
2018-12-13T09:34:42.943Z,1.80
2018-12-13T09:37:10.697Z,1.80
2018-12-13T09:39:38.383Z,1.80
2018-12-13T09:42:06.053Z,1.80
2018-12-13T09:44:33.786Z,1.80
2018-12-13T09:47:01.471Z,1.80
2018-12-13T09:49:29.210Z,1.90
2018-12-13T09:51:56.899Z,1.90
2018-12-13T09:54:24.590Z,1.90
2018-12-13T09:56:52.285Z,1.90
2018-12-13T09:59:20.027Z,1.90
2018-12-13T10:01:47.742Z,1.90
2018-12-13T10:04:15.422Z,1.90
2018-12-13T10:06:43.185Z,1.90
2018-12-13T10:09:10.886Z,1.90
2018-12-13T10:11:38.537Z,1.80
2018-12-13T10:14:06.230Z,1.90
2018-12-13T10:16:33.911Z,1.80
2018-12-13T10:19:01.595Z,1.80
2018-12-13T10:21:29.294Z,1.80
2018-12-13T10:23:57.044Z,1.80
2018-12-13T10:26:31.632Z,1.90
2018-12-13T10:28:59.374Z,1.90
2018-12-13T10:31:27.227Z,1.90
2018-12-13T10:33:55.083Z,1.90
2018-12-13T10:36:22.765Z,1.90
2018-12-13T10:38:53.204Z,1.80
2018-12-13T10:41:20.280Z,1.80
2018-12-13T10:43:48.023Z,1.80
2018-12-13T10:46:15.804Z,1.90
2018-12-13T10:48:43.561Z,2.00
2018-12-13T10:51:11.261Z,1.90
2018-12-13T10:53:39.039Z,1.90
2018-12-13T10:56:06.800Z,1.90
2018-12-13T10:58:34.598Z,1.90
2018-12-13T11:01:07.784Z,1.90
2018-12-13T11:03:35.511Z,1.90
2018-12-13T11:06:04.048Z,1.90
2018-12-13T11:08:31.893Z,1.90
2018-12-13T11:10:59.637Z,1.90
2018-12-13T11:13:27.392Z,1.80
2018-12-13T11:15:55.243Z,1.80
2018-12-13T11:18:22.962Z,1.90
2018-12-13T11:20:50.658Z,1.90
2018-12-13T11:23:18.379Z,1.90
2018-12-13T11:25:46.051Z,1.90
2018-12-13T11:28:25.951Z,1.90
2018-12-13T11:30:53.643Z,1.90
2018-12-13T11:33:21.325Z,1.90
2018-12-13T11:35:49.105Z,1.90
2018-12-13T11:38:16.885Z,1.80
2018-12-13T11:40:44.591Z,1.80
2018-12-13T11:43:12.290Z,1.80
2018-12-13T11:45:39.994Z,1.80
2018-12-13T11:48:07.711Z,1.80
2018-12-13T11:50:35.463Z,1.80
2018-12-13T11:53:03.265Z,1.80
2018-12-13T11:55:38.212Z,1.80
2018-12-13T11:58:12.379Z,1.80
2018-12-13T12:00:40.114Z,1.80
2018-12-13T12:03:07.815Z,1.80
2018-12-13T12:05:35.607Z,1.80
2018-12-13T12:08:03.552Z,1.90
2018-12-13T12:10:31.240Z,1.90
2018-12-13T12:12:58.935Z,1.90
2018-12-13T12:15:26.770Z,1.90
2018-12-13T12:17:54.510Z,1.90
2018-12-13T12:20:22.192Z,1.80
2018-12-13T12:22:49.998Z,1.80
2018-12-13T12:25:17.653Z,1.70
2018-12-13T12:27:45.332Z,1.70
2018-12-13T12:30:13.022Z,1.70
2018-12-13T12:32:40.688Z,1.70
2018-12-13T12:35:08.391Z,1.70
2018-12-13T12:37:36.171Z,1.70
2018-12-13T12:40:05.328Z,1.70
2018-12-13T12:42:33.038Z,1.70
2018-12-13T12:45:00.731Z,1.70
2018-12-13T12:47:28.385Z,1.70
2018-12-13T12:49:56.075Z,1.60
2018-12-13T12:52:23.767Z,1.60
2018-12-13T12:54:51.409Z,1.60
2018-12-13T12:57:19.065Z,1.60
2018-12-13T12:59:46.783Z,1.60
2018-12-13T13:02:14.452Z,1.60
2018-12-13T13:04:42.052Z,1.60
2018-12-13T13:07:09.719Z,1.60
2018-12-13T13:09:37.479Z,1.60
2018-12-13T13:12:05.118Z,1.60
2018-12-13T13:14:32.752Z,1.60
2018-12-13T13:17:00.389Z,1.60
2018-12-13T13:19:28.075Z,1.50
2018-12-13T13:21:55.804Z,1.50
2018-12-13T13:24:23.429Z,1.50
2018-12-13T13:26:51.065Z,1.50
2018-12-13T13:29:18.731Z,1.50
2018-12-13T13:31:46.387Z,1.40
2018-12-13T13:34:14.026Z,1.40
2018-12-13T13:36:41.740Z,1.40
2018-12-13T13:39:09.394Z,1.50
2018-12-13T13:41:37.095Z,1.40
2018-12-13T13:44:04.758Z,1.50
2018-12-13T13:46:32.404Z,1.40
2018-12-13T13:49:00.039Z,1.40
2018-12-13T13:51:27.829Z,1.40
2018-12-13T13:53:55.556Z,1.40
2018-12-13T13:56:23.229Z,1.40
2018-12-13T13:58:50.908Z,1.40
2018-12-13T14:01:18.584Z,1.40
2018-12-13T14:03:46.228Z,1.50
2018-12-13T14:06:13.906Z,1.40
2018-12-13T14:08:41.588Z,1.40
2018-12-13T14:11:09.264Z,1.50
2018-12-13T14:13:36.940Z,1.40
2018-12-13T14:16:04.596Z,1.40
2018-12-13T14:18:32.228Z,1.40
2018-12-13T14:20:59.932Z,1.40
2018-12-13T14:23:27.580Z,1.40
2018-12-13T14:25:55.201Z,1.40
2018-12-13T14:28:22.890Z,1.40
2018-12-13T14:30:50.564Z,1.40
2018-12-13T14:33:18.477Z,1.40
2018-12-13T14:35:46.182Z,1.40
2018-12-13T14:38:13.836Z,1.40
2018-12-13T14:40:41.475Z,1.40
2018-12-13T14:43:09.234Z,1.40
2018-12-13T14:45:36.904Z,1.40
2018-12-13T14:48:04.599Z,1.40
2018-12-13T14:50:32.326Z,1.30
2018-12-13T14:52:59.946Z,1.40
2018-12-13T14:55:27.602Z,1.40
2018-12-13T14:57:55.271Z,1.30
2018-12-13T15:00:22.950Z,1.40
2018-12-13T15:02:50.600Z,1.40
2018-12-13T15:05:18.811Z,1.40
2018-12-13T15:07:46.486Z,1.40
2018-12-13T15:10:14.158Z,1.40
2018-12-13T15:12:41.894Z,1.40
2018-12-13T15:15:09.554Z,1.40
2018-12-13T15:17:37.192Z,1.30
2018-12-13T15:20:05.164Z,1.30
2018-12-13T15:22:32.852Z,1.30
2018-12-13T15:25:00.568Z,1.30
2018-12-13T15:27:28.270Z,1.30
2018-12-13T15:29:55.998Z,1.40
2018-12-13T15:32:23.757Z,1.30
2018-12-13T15:34:51.506Z,1.40
2018-12-13T15:37:19.222Z,1.40
2018-12-13T15:39:46.903Z,1.40
2018-12-13T15:42:14.660Z,1.40
2018-12-13T15:44:44.389Z,1.40
2018-12-13T15:47:12.097Z,1.40
2018-12-13T15:49:40.238Z,1.40
2018-12-13T15:52:07.960Z,1.40
2018-12-13T15:54:35.809Z,1.30
2018-12-13T15:57:03.539Z,1.40
2018-12-13T15:59:31.299Z,1.40
2018-12-13T16:05:51.668Z,1.30
2018-12-13T16:08:21.763Z,1.30
2018-12-13T16:10:49.572Z,1.20
2018-12-13T16:13:18.209Z,1.30
2018-12-13T16:15:46.036Z,1.30
2018-12-13T16:18:13.843Z,1.30
2018-12-13T16:20:41.660Z,1.30
2018-12-13T16:36:18.718Z,1.20
2018-12-13T16:38:46.546Z,1.40
2018-12-13T16:41:15.525Z,1.40
2018-12-13T16:43:45.190Z,1.40
2018-12-13T16:46:13.806Z,1.30
2018-12-13T16:48:41.869Z,1.30
2018-12-13T16:51:09.965Z,1.30
2018-12-13T16:53:37.980Z,1.40
2018-12-13T16:56:06.338Z,1.30
2018-12-13T16:58:34.044Z,1.20
2018-12-13T17:01:01.760Z,1.20
2018-12-13T17:03:39.844Z,1.20
2018-12-13T17:06:07.804Z,1.20
2018-12-13T17:08:35.734Z,1.20
2018-12-13T17:11:03.863Z,1.20
2018-12-13T17:13:32.074Z,1.20
2018-12-13T17:15:59.810Z,1.20
2018-12-13T17:18:27.869Z,1.10
2018-12-13T17:20:55.662Z,1.10
2018-12-13T17:23:23.374Z,1.10
2018-12-13T17:25:51.102Z,1.10
2018-12-13T17:28:18.835Z,1.10
2018-12-13T17:30:46.552Z,1.10
2018-12-13T17:33:14.340Z,1.20
2018-12-13T17:35:42.130Z,1.20
2018-12-13T17:38:11.833Z,1.10
2018-12-13T17:40:39.644Z,1.10
2018-12-13T17:43:07.376Z,1.10
2018-12-13T17:45:35.121Z,1.10
2018-12-13T17:48:02.869Z,1.10
2018-12-13T17:50:30.625Z,1.10
2018-12-13T17:52:58.444Z,1.10
2018-12-13T17:55:26.244Z,1.00
2018-12-13T17:57:53.916Z,1.00
2018-12-13T18:00:21.718Z,1.10
2018-12-13T18:02:49.439Z,1.10
2018-12-13T18:05:17.195Z,1.10
2018-12-13T18:07:44.958Z,1.10
2018-12-13T18:10:12.738Z,1.10
2018-12-13T18:12:40.616Z,1.10
2018-12-13T18:15:08.898Z,1.20
2018-12-13T18:17:36.695Z,1.20
2018-12-13T18:20:05.527Z,1.20
2018-12-13T18:22:33.305Z,1.20
2018-12-13T18:25:01.112Z,1.20
2018-12-13T18:27:28.855Z,1.20
2018-12-13T18:29:56.699Z,1.30
2018-12-13T18:32:24.523Z,1.20
2018-12-13T18:34:52.301Z,1.20
2018-12-13T18:37:20.027Z,1.20
2018-12-13T18:39:47.883Z,1.20
2018-12-13T18:42:15.631Z,1.20
2018-12-13T18:44:43.361Z,1.20
2018-12-13T18:47:11.185Z,1.20
2018-12-13T18:49:39.010Z,1.20
2018-12-13T18:52:06.763Z,1.10
2018-12-13T18:54:34.519Z,1.10
2018-12-13T18:57:02.193Z,1.20
2018-12-13T18:59:29.893Z,1.10
2018-12-13T19:01:58.679Z,1.10
2018-12-13T19:04:26.923Z,1.10
2018-12-13T19:06:54.626Z,1.20
2018-12-13T19:09:22.371Z,1.10
2018-12-13T19:11:50.065Z,1.10
2018-12-13T19:14:18.050Z,1.10
2018-12-13T19:16:45.789Z,1.00
2018-12-13T19:19:13.502Z,1.10
2018-12-13T19:21:41.208Z,1.00
2018-12-13T19:24:08.963Z,1.00
2018-12-13T19:26:36.887Z,1.00
2018-12-13T19:29:04.571Z,1.00
2018-12-13T19:31:32.308Z,1.00
2018-12-13T19:34:00.080Z,1.00
2018-12-13T19:36:27.879Z,0.90
2018-12-13T19:38:55.651Z,0.90
2018-12-13T19:41:23.387Z,0.90
2018-12-13T19:43:51.141Z,0.90
2018-12-13T19:46:18.919Z,0.90
2018-12-13T19:48:46.655Z,0.90
2018-12-13T19:51:14.478Z,0.90
2018-12-13T19:53:42.365Z,0.90
2018-12-13T19:56:10.286Z,0.90
2018-12-13T19:58:38.602Z,0.90
2018-12-13T20:01:06.593Z,0.90
2018-12-13T20:03:34.311Z,0.80
2018-12-13T20:06:02.070Z,0.80
2018-12-13T20:08:29.845Z,0.80
2018-12-13T20:10:57.678Z,0.80
2018-12-13T20:13:25.448Z,0.80
2018-12-13T20:15:53.197Z,0.90
2018-12-13T20:18:20.929Z,0.80
2018-12-13T20:20:48.607Z,0.80
2018-12-13T20:23:16.335Z,0.80
2018-12-13T20:25:46.604Z,0.80
2018-12-13T20:28:14.453Z,0.80
2018-12-13T20:30:42.183Z,0.80
2018-12-13T20:33:09.897Z,0.80
2018-12-13T20:35:37.591Z,0.90
2018-12-13T20:38:05.367Z,0.90
2018-12-13T20:40:33.174Z,0.90
2018-12-13T20:43:00.884Z,0.90
2018-12-13T20:45:28.739Z,0.90
2018-12-13T20:47:56.609Z,0.80
2018-12-13T20:50:24.364Z,0.90
2018-12-13T20:52:52.181Z,0.90
2018-12-13T20:55:19.953Z,0.80
2018-12-13T20:57:47.780Z,0.80
2018-12-13T21:00:15.883Z,0.80
2018-12-13T21:02:44.465Z,0.80
2018-12-13T21:05:12.210Z,0.90
2018-12-13T21:07:39.973Z,0.80
2018-12-13T21:10:09.281Z,0.80
2018-12-13T21:12:37.486Z,0.80
2018-12-13T21:15:07.257Z,0.80
2018-12-13T21:17:34.958Z,0.80
2018-12-13T21:20:02.881Z,0.80
2018-12-13T21:22:30.581Z,0.80
2018-12-13T21:24:58.288Z,0.70
2018-12-13T21:27:26.290Z,0.70
2018-12-13T21:29:54.077Z,0.80
2018-12-13T21:32:21.805Z,0.80
2018-12-13T21:34:49.658Z,0.70
2018-12-13T21:37:17.404Z,0.80
2018-12-13T21:39:45.104Z,0.80
2018-12-13T21:42:12.812Z,0.80
2018-12-13T21:44:44.108Z,0.80
2018-12-13T21:47:11.859Z,0.80
2018-12-13T21:49:39.583Z,0.80
2018-12-13T21:52:07.331Z,0.80
2018-12-13T21:54:35.037Z,0.80
2018-12-13T21:57:02.786Z,0.70
2018-12-13T21:59:30.518Z,0.70
2018-12-13T22:01:58.222Z,0.70
2018-12-13T22:04:25.948Z,0.70
2018-12-13T22:06:53.723Z,0.70
2018-12-13T22:09:21.590Z,0.70
2018-12-13T22:11:49.393Z,0.70
2018-12-13T22:14:17.181Z,0.70
2018-12-13T22:16:44.896Z,0.70
2018-12-13T22:19:12.622Z,0.60
2018-12-13T22:21:40.368Z,0.60
2018-12-13T22:24:08.142Z,0.60
2018-12-13T22:26:35.859Z,0.60
2018-12-13T22:29:03.596Z,0.60
2018-12-13T22:31:31.297Z,0.70
2018-12-13T22:33:59.051Z,0.70
2018-12-13T22:36:26.762Z,0.60
2018-12-13T22:38:54.445Z,0.60
2018-12-13T22:41:26.348Z,0.60
2018-12-13T22:43:51.982Z,0.60
2018-12-13T22:46:19.693Z,0.60
2018-12-13T22:48:47.403Z,0.60
2018-12-13T22:51:15.318Z,0.60
2018-12-13T22:53:43.051Z,0.70
2018-12-13T22:56:10.773Z,0.70
2018-12-13T22:58:38.460Z,0.70
2018-12-13T23:01:06.311Z,0.70
2018-12-13T23:03:34.117Z,0.70
2018-12-13T23:06:01.857Z,0.70
2018-12-13T23:08:29.537Z,0.60
2018-12-13T23:10:57.578Z,0.70
2018-12-13T23:13:25.312Z,0.60
2018-12-13T23:15:53.029Z,0.60
2018-12-13T23:18:20.727Z,0.60
2018-12-13T23:20:48.410Z,0.60
2018-12-13T23:23:16.106Z,0.60
2018-12-13T23:25:43.803Z,0.60
2018-12-13T23:28:11.483Z,0.60
2018-12-13T23:30:39.152Z,0.60
2018-12-13T23:33:06.823Z,0.50
2018-12-13T23:35:34.505Z,0.60
2018-12-13T23:38:02.179Z,0.50
2018-12-13T23:40:36.588Z,0.50
2018-12-13T23:43:04.316Z,0.50
2018-12-13T23:45:32.266Z,0.60
2018-12-13T23:48:00.013Z,0.60
2018-12-13T23:50:27.778Z,0.60
2018-12-13T23:52:55.499Z,0.50
2018-12-13T23:55:23.248Z,0.50
2018-12-13T23:57:50.910Z,0.50
